Plum Branch, SC (29845)

11:32 AM EDT on October 30, 2014 (GMT -0400)
Plum Branch South Carolina | Change Station
CLOSE
Current Station
Personal Weather Station
Location: Plum Branch, SC
Elevation: 354 ft
Nearby Weather Stations

Elev 354 ft 33.81 °N, 82.31 °W | Updated 1 second ago

Clear
Clear
62.8 °F
Feels Like 62.8 °F
N
12.8
Wind Variable Wind from SW
Gusts 12.8 mph

Today
High -- | Low -- °F
--% Chance of Precip.
Yesterday
High -- | Low -- °F
Precip. -- in
7:46 AM 6:38 PM
Waxing Crescent, 45% visible
Pressure 30.11 in
Visibility 10.0 miles
Clouds Clear
Dew Point 8 °F
Humidity 11%
Rainfall 0.00 in
Snow Depth Not available.
UV 4 out of 12
Pollen 2.90 out of 12
Air Quality Not available.
Flu Activity Not available.
METAR KHQU 301515Z AUTO 06008KT 10SM CLR 18/10 A3011 RMK AO1 T01840102

More Conditions Fewer Conditions

Pressure 30.11 in
Visibility 10.0 miles
Clouds Clear
Dew Point 8 °F
Humidity 11%
Rainfall 0.00 in
Snow Depth Not available.
UV 4 out of 12
Pollen 2.90 out of 12
Air Quality Not available.
Flu Activity Not available.
METAR KHQU 301515Z AUTO 06008KT 10SM CLR 18/10 A3011 RMK AO1 T01840102

More Conditions Fewer Conditions

10-Day Weather Forecast

Almanac

Astronomy

Oct. 30, 2014 Rise Set
Actual Time
Civil Twilight
Nautical Twilight
Astronomical Twilight
Moon
Length of Visible Light
Length of Day
Tomorrow will be .
, % of the Moon is Illuminated

Today's Extremes

State Highs State Lows

Community

WunderPhotos

Upload Photos

1,766,387 photos uploaded!

WunderBlogs® & News

Nearby

Air Quality

  Air Quality AQ Index Pollutant
Not available.

Snow Depth

Station Depth Elevation

Earthquake Activity

City Distance Mag. Time & Date
Minimum magnitude displayed is 2.5.

Coastal Water Temperatures

Place Temperature

Nearby Weather Stations